sensor_id;sensor_type;location;lat;lon;timestamp;P1;durP1;ratioP1;P2;durP2;ratioP2
33553;SDS011;19885;42.208;24.952;2023-03-17T00:00:43;8.37;;;3.97;;
33553;SDS011;19885;42.208;24.952;2023-03-17T00:03:26;3.60;;;3.30;;
33553;SDS011;19885;42.208;24.952;2023-03-17T00:05:53;3.90;;;3.50;;
33553;SDS011;19885;42.208;24.952;2023-03-17T00:08:23;4.77;;;3.63;;
33553;SDS011;19885;42.208;24.952;2023-03-17T00:10:53;4.07;;;3.50;;
33553;SDS011;19885;42.208;24.952;2023-03-17T00:13:19;4.63;;;3.37;;
33553;SDS011;19885;42.208;24.952;2023-03-17T00:15:45;4.70;;;3.60;;
33553;SDS011;19885;42.208;24.952;2023-03-17T00:18:16;5.97;;;3.73;;
33553;SDS011;19885;42.208;24.952;2023-03-17T00:20:43;6.07;;;4.20;;
33553;SDS011;19885;42.208;24.952;2023-03-17T00:23:20;4.90;;;4.03;;
33553;SDS011;19885;42.208;24.952;2023-03-17T00:25:48;4.37;;;3.47;;
33553;SDS011;19885;42.208;24.952;2023-03-17T00:28:15;5.03;;;4.10;;
33553;SDS011;19885;42.208;24.952;2023-03-17T00:30:44;5.80;;;4.27;;
33553;SDS011;19885;42.208;24.952;2023-03-17T00:33:10;5.37;;;4.17;;
33553;SDS011;19885;42.208;24.952;2023-03-17T00:35:43;4.60;;;3.50;;
33553;SDS011;19885;42.208;24.952;2023-03-17T00:38:13;5.50;;;4.60;;
33553;SDS011;19885;42.208;24.952;2023-03-17T00:40:41;6.70;;;3.83;;
33553;SDS011;19885;42.208;24.952;2023-03-17T00:43:09;4.60;;;4.13;;
33553;SDS011;19885;42.208;24.952;2023-03-17T00:45:34;3.87;;;3.50;;
33553;SDS011;19885;42.208;24.952;2023-03-17T00:48:04;5.80;;;4.53;;
33553;SDS011;19885;42.208;24.952;2023-03-17T00:50:39;4.77;;;3.77;;
33553;SDS011;19885;42.208;24.952;2023-03-17T00:53:11;5.57;;;3.33;;
33553;SDS011;19885;42.208;24.952;2023-03-17T00:55:39;5.60;;;3.50;;
33553;SDS011;19885;42.208;24.952;2023-03-17T00:58:13;4.37;;;3.67;;
33553;SDS011;19885;42.208;24.952;2023-03-17T01:00:43;4.37;;;3.67;;
33553;SDS011;19885;42.208;24.952;2023-03-17T01:03:10;4.40;;;3.70;;
33553;SDS011;19885;42.208;24.952;2023-03-17T01:05:37;4.30;;;3.90;;
33553;SDS011;19885;42.208;24.952;2023-03-17T01:08:07;4.07;;;3.60;;
33553;SDS011;19885;42.208;24.952;2023-03-17T01:10:33;4.73;;;3.83;;
33553;SDS011;19885;42.208;24.952;2023-03-17T01:12:59;5.03;;;4.27;;
33553;SDS011;19885;42.208;24.952;2023-03-17T01:15:26;4.13;;;3.50;;
33553;SDS011;19885;42.208;24.952;2023-03-17T01:17:55;4.27;;;3.57;;
33553;SDS011;19885;42.208;24.952;2023-03-17T01:20:23;5.40;;;3.40;;
33553;SDS011;19885;42.208;24.952;2023-03-17T01:22:54;4.83;;;3.50;;
33553;SDS011;19885;42.208;24.952;2023-03-17T01:25:19;3.53;;;3.20;;
33553;SDS011;19885;42.208;24.952;2023-03-17T01:27:46;3.97;;;2.87;;
33553;SDS011;19885;42.208;24.952;2023-03-17T01:32:44;3.97;;;3.60;;
33553;SDS011;19885;42.208;24.952;2023-03-17T01:35:10;3.90;;;3.43;;
33553;SDS011;19885;42.208;24.952;2023-03-17T01:37:37;3.80;;;3.13;;
33553;SDS011;19885;42.208;24.952;2023-03-17T01:40:05;4.00;;;3.40;;
33553;SDS011;19885;42.208;24.952;2023-03-17T01:42:34;4.83;;;4.07;;
33553;SDS011;19885;42.208;24.952;2023-03-17T01:45:01;3.87;;;3.27;;
33553;SDS011;19885;42.208;24.952;2023-03-17T01:47:31;4.70;;;3.33;;
33553;SDS011;19885;42.208;24.952;2023-03-17T01:50:06;3.73;;;2.80;;
33553;SDS011;19885;42.208;24.952;2023-03-17T01:52:36;3.60;;;3.30;;
33553;SDS011;19885;42.208;24.952;2023-03-17T01:55:22;4.47;;;3.10;;
33553;SDS011;19885;42.208;24.952;2023-03-17T01:57:51;3.47;;;2.60;;
33553;SDS011;19885;42.208;24.952;2023-03-17T02:00:21;3.87;;;3.03;;
33553;SDS011;19885;42.208;24.952;2023-03-17T02:02:52;3.80;;;3.40;;
33553;SDS011;19885;42.208;24.952;2023-03-17T02:05:23;3.97;;;3.30;;
33553;SDS011;19885;42.208;24.952;2023-03-17T02:07:53;4.53;;;3.10;;
33553;SDS011;19885;42.208;24.952;2023-03-17T02:10:22;3.67;;;3.20;;
33553;SDS011;19885;42.208;24.952;2023-03-17T02:12:51;2.80;;;2.60;;
33553;SDS011;19885;42.208;24.952;2023-03-17T02:15:20;2.97;;;2.67;;
33553;SDS011;19885;42.208;24.952;2023-03-17T02:17:46;5.23;;;2.97;;
33553;SDS011;19885;42.208;24.952;2023-03-17T02:22:40;3.77;;;3.03;;
33553;SDS011;19885;42.208;24.952;2023-03-17T02:25:09;3.67;;;2.83;;
33553;SDS011;19885;42.208;24.952;2023-03-17T02:27:39;2.90;;;2.60;;
33553;SDS011;19885;42.208;24.952;2023-03-17T02:30:11;3.10;;;2.63;;
33553;SDS011;19885;42.208;24.952;2023-03-17T02:32:40;3.03;;;2.73;;
33553;SDS011;19885;42.208;24.952;2023-03-17T02:35:06;3.17;;;2.50;;
33553;SDS011;19885;42.208;24.952;2023-03-17T02:37:32;3.50;;;3.20;;
33553;SDS011;19885;42.208;24.952;2023-03-17T02:39:59;4.33;;;3.17;;
33553;SDS011;19885;42.208;24.952;2023-03-17T02:42:26;2.90;;;2.17;;
33553;SDS011;19885;42.208;24.952;2023-03-17T02:44:52;2.87;;;2.47;;
33553;SDS011;19885;42.208;24.952;2023-03-17T02:47:19;2.73;;;2.43;;
33553;SDS011;19885;42.208;24.952;2023-03-17T02:49:46;3.70;;;3.37;;
33553;SDS011;19885;42.208;24.952;2023-03-17T02:52:13;3.73;;;2.60;;
33553;SDS011;19885;42.208;24.952;2023-03-17T02:54:38;7.20;;;2.77;;
33553;SDS011;19885;42.208;24.952;2023-03-17T02:57:04;2.93;;;2.40;;
33553;SDS011;19885;42.208;24.952;2023-03-17T02:59:31;4.13;;;2.93;;
33553;SDS011;19885;42.208;24.952;2023-03-17T03:01:59;3.40;;;2.77;;
33553;SDS011;19885;42.208;24.952;2023-03-17T03:04:26;3.83;;;3.00;;
33553;SDS011;19885;42.208;24.952;2023-03-17T03:06:52;3.37;;;3.07;;
33553;SDS011;19885;42.208;24.952;2023-03-17T03:09:19;3.00;;;2.70;;
33553;SDS011;19885;42.208;24.952;2023-03-17T03:11:45;3.27;;;2.97;;
33553;SDS011;19885;42.208;24.952;2023-03-17T03:14:11;3.00;;;2.50;;
33553;SDS011;19885;42.208;24.952;2023-03-17T03:16:38;3.27;;;2.30;;
33553;SDS011;19885;42.208;24.952;2023-03-17T03:19:04;2.40;;;2.20;;
33553;SDS011;19885;42.208;24.952;2023-03-17T03:21:33;2.90;;;2.37;;
33553;SDS011;19885;42.208;24.952;2023-03-17T03:23:59;2.70;;;2.50;;
33553;SDS011;19885;42.208;24.952;2023-03-17T03:26:25;2.93;;;2.40;;
33553;SDS011;19885;42.208;24.952;2023-03-17T03:28:51;5.33;;;2.00;;
33553;SDS011;19885;42.208;24.952;2023-03-17T03:31:17;4.63;;;2.93;;
33553;SDS011;19885;42.208;24.952;2023-03-17T03:33:43;3.00;;;2.47;;
33553;SDS011;19885;42.208;24.952;2023-03-17T03:36:10;3.13;;;2.40;;
33553;SDS011;19885;42.208;24.952;2023-03-17T03:38:37;3.47;;;3.07;;
33553;SDS011;19885;42.208;24.952;2023-03-17T03:41:03;2.17;;;2.00;;
33553;SDS011;19885;42.208;24.952;2023-03-17T03:43:30;2.47;;;2.27;;
33553;SDS011;19885;42.208;24.952;2023-03-17T03:45:55;2.90;;;2.20;;
33553;SDS011;19885;42.208;24.952;2023-03-17T03:48:21;2.87;;;2.43;;
33553;SDS011;19885;42.208;24.952;2023-03-17T03:50:47;2.50;;;2.30;;
33553;SDS011;19885;42.208;24.952;2023-03-17T03:53:13;2.70;;;2.23;;
33553;SDS011;19885;42.208;24.952;2023-03-17T03:55:39;2.80;;;2.43;;
33553;SDS011;19885;42.208;24.952;2023-03-17T03:58:05;5.53;;;2.30;;
33553;SDS011;19885;42.208;24.952;2023-03-17T04:00:32;2.47;;;2.27;;
33553;SDS011;19885;42.208;24.952;2023-03-17T04:02:58;2.77;;;2.40;;
33553;SDS011;19885;42.208;24.952;2023-03-17T04:05:24;2.90;;;2.60;;
33553;SDS011;19885;42.208;24.952;2023-03-17T04:07:50;3.10;;;2.40;;
33553;SDS011;19885;42.208;24.952;2023-03-17T04:10:16;4.60;;;2.63;;
33553;SDS011;19885;42.208;24.952;2023-03-17T04:12:41;3.27;;;2.67;;
33553;SDS011;19885;42.208;24.952;2023-03-17T04:15:08;2.63;;;2.40;;
33553;SDS011;19885;42.208;24.952;2023-03-17T04:17:39;2.30;;;1.90;;
33553;SDS011;19885;42.208;24.952;2023-03-17T04:20:05;7.80;;;2.33;;
33553;SDS011;19885;42.208;24.952;2023-03-17T04:22:31;2.43;;;2.03;;
33553;SDS011;19885;42.208;24.952;2023-03-17T04:24:57;2.90;;;2.57;;
33553;SDS011;19885;42.208;24.952;2023-03-17T04:27:23;2.37;;;2.17;;
33553;SDS011;19885;42.208;24.952;2023-03-17T04:29:48;5.07;;;2.13;;
33553;SDS011;19885;42.208;24.952;2023-03-17T04:32:14;4.00;;;2.97;;
33553;SDS011;19885;42.208;24.952;2023-03-17T04:34:40;2.70;;;2.37;;
33553;SDS011;19885;42.208;24.952;2023-03-17T04:37:07;2.50;;;2.10;;
33553;SDS011;19885;42.208;24.952;2023-03-17T04:39:33;4.70;;;2.60;;
33553;SDS011;19885;42.208;24.952;2023-03-17T04:41:59;3.13;;;2.80;;
33553;SDS011;19885;42.208;24.952;2023-03-17T04:44:25;3.97;;;3.13;;
33553;SDS011;19885;42.208;24.952;2023-03-17T04:46:51;6.90;;;2.67;;
33553;SDS011;19885;42.208;24.952;2023-03-17T04:49:16;2.73;;;2.47;;
33553;SDS011;19885;42.208;24.952;2023-03-17T04:51:42;4.03;;;2.60;;
33553;SDS011;19885;42.208;24.952;2023-03-17T04:54:08;6.93;;;3.77;;
33553;SDS011;19885;42.208;24.952;2023-03-17T04:56:34;3.53;;;2.83;;
33553;SDS011;19885;42.208;24.952;2023-03-17T04:59:00;4.00;;;2.47;;
33553;SDS011;19885;42.208;24.952;2023-03-17T05:01:26;3.13;;;2.70;;
33553;SDS011;19885;42.208;24.952;2023-03-17T05:03:51;3.33;;;3.03;;
33553;SDS011;19885;42.208;24.952;2023-03-17T05:06:18;4.93;;;2.93;;
33553;SDS011;19885;42.208;24.952;2023-03-17T05:08:45;5.77;;;3.07;;
33553;SDS011;19885;42.208;24.952;2023-03-17T05:11:13;4.33;;;3.40;;
33553;SDS011;19885;42.208;24.952;2023-03-17T05:13:39;3.57;;;2.80;;
33553;SDS011;19885;42.208;24.952;2023-03-17T05:16:07;2.67;;;2.47;;
33553;SDS011;19885;42.208;24.952;2023-03-17T05:18:33;2.47;;;2.10;;
33553;SDS011;19885;42.208;24.952;2023-03-17T05:21:00;3.93;;;2.80;;
33553;SDS011;19885;42.208;24.952;2023-03-17T05:23:25;13.83;;;3.77;;
33553;SDS011;19885;42.208;24.952;2023-03-17T05:25:51;10.53;;;3.13;;
33553;SDS011;19885;42.208;24.952;2023-03-17T05:28:17;3.33;;;2.73;;
33553;SDS011;19885;42.208;24.952;2023-03-17T05:30:44;4.47;;;3.50;;
33553;SDS011;19885;42.208;24.952;2023-03-17T05:33:13;3.70;;;2.97;;
33553;SDS011;19885;42.208;24.952;2023-03-17T05:35:39;5.60;;;3.17;;
33553;SDS011;19885;42.208;24.952;2023-03-17T05:38:06;4.27;;;3.20;;
33553;SDS011;19885;42.208;24.952;2023-03-17T05:40:32;4.87;;;3.37;;
33553;SDS011;19885;42.208;24.952;2023-03-17T05:42:59;3.47;;;2.83;;
33553;SDS011;19885;42.208;24.952;2023-03-17T05:45:25;3.40;;;2.30;;
33553;SDS011;19885;42.208;24.952;2023-03-17T05:47:51;2.67;;;2.47;;
33553;SDS011;19885;42.208;24.952;2023-03-17T05:50:16;3.03;;;2.73;;
33553;SDS011;19885;42.208;24.952;2023-03-17T05:52:42;5.03;;;3.43;;
33553;SDS011;19885;42.208;24.952;2023-03-17T05:55:07;4.03;;;3.37;;
33553;SDS011;19885;42.208;24.952;2023-03-17T05:57:33;4.38;;;3.20;;
33553;SDS011;19885;42.208;24.952;2023-03-17T05:59:59;5.50;;;3.83;;
33553;SDS011;19885;42.208;24.952;2023-03-17T06:02:24;3.47;;;2.90;;
33553;SDS011;19885;42.208;24.952;2023-03-17T06:04:51;4.87;;;3.37;;
33553;SDS011;19885;42.208;24.952;2023-03-17T06:07:16;3.60;;;2.60;;
33553;SDS011;19885;42.208;24.952;2023-03-17T06:09:42;3.53;;;2.40;;
33553;SDS011;19885;42.208;24.952;2023-03-17T06:12:08;4.40;;;2.97;;
33553;SDS011;19885;42.208;24.952;2023-03-17T06:14:34;4.53;;;3.67;;
33553;SDS011;19885;42.208;24.952;2023-03-17T06:17:00;10.93;;;3.53;;
33553;SDS011;19885;42.208;24.952;2023-03-17T06:19:27;3.80;;;3.10;;
33553;SDS011;19885;42.208;24.952;2023-03-17T06:21:52;5.07;;;3.50;;
33553;SDS011;19885;42.208;24.952;2023-03-17T06:24:18;3.50;;;3.20;;
33553;SDS011;19885;42.208;24.952;2023-03-17T06:26:43;3.73;;;3.23;;
33553;SDS011;19885;42.208;24.952;2023-03-17T06:29:09;4.97;;;3.53;;
33553;SDS011;19885;42.208;24.952;2023-03-17T06:31:36;5.13;;;4.10;;
33553;SDS011;19885;42.208;24.952;2023-03-17T06:34:02;5.37;;;3.80;;
33553;SDS011;19885;42.208;24.952;2023-03-17T06:36:28;4.13;;;3.03;;
33553;SDS011;19885;42.208;24.952;2023-03-17T06:38:54;4.80;;;3.37;;
33553;SDS011;19885;42.208;24.952;2023-03-17T06:41:20;6.53;;;3.27;;
33553;SDS011;19885;42.208;24.952;2023-03-17T06:43:46;3.90;;;3.07;;
33553;SDS011;19885;42.208;24.952;2023-03-17T06:46:11;5.07;;;3.47;;
33553;SDS011;19885;42.208;24.952;2023-03-17T06:48:37;4.43;;;3.03;;
33553;SDS011;19885;42.208;24.952;2023-03-17T06:51:05;5.07;;;3.77;;
33553;SDS011;19885;42.208;24.952;2023-03-17T06:53:31;4.97;;;3.40;;
33553;SDS011;19885;42.208;24.952;2023-03-17T06:55:56;4.60;;;3.33;;
33553;SDS011;19885;42.208;24.952;2023-03-17T06:58:22;5.50;;;2.97;;
33553;SDS011;19885;42.208;24.952;2023-03-17T07:00:48;4.77;;;2.63;;
33553;SDS011;19885;42.208;24.952;2023-03-17T07:03:17;3.30;;;2.20;;
33553;SDS011;19885;42.208;24.952;2023-03-17T07:05:44;3.83;;;3.30;;
33553;SDS011;19885;42.208;24.952;2023-03-17T07:08:10;4.60;;;3.23;;
33553;SDS011;19885;42.208;24.952;2023-03-17T07:10:36;2.70;;;2.30;;
33553;SDS011;19885;42.208;24.952;2023-03-17T07:13:03;2.83;;;2.37;;
33553;SDS011;19885;42.208;24.952;2023-03-17T07:15:32;4.27;;;2.37;;
33553;SDS011;19885;42.208;24.952;2023-03-17T07:18:00;3.13;;;2.30;;
33553;SDS011;19885;42.208;24.952;2023-03-17T07:20:29;3.47;;;2.33;;
33553;SDS011;19885;42.208;24.952;2023-03-17T07:22:55;2.33;;;2.10;;
33553;SDS011;19885;42.208;24.952;2023-03-17T07:25:22;2.27;;;2.00;;
33553;SDS011;19885;42.208;24.952;2023-03-17T07:27:47;4.57;;;2.27;;
33553;SDS011;19885;42.208;24.952;2023-03-17T07:30:13;2.90;;;2.00;;
33553;SDS011;19885;42.208;24.952;2023-03-17T07:32:43;4.83;;;2.00;;
33553;SDS011;19885;42.208;24.952;2023-03-17T07:35:09;2.13;;;1.93;;
33553;SDS011;19885;42.208;24.952;2023-03-17T07:37:35;2.03;;;1.77;;
33553;SDS011;19885;42.208;24.952;2023-03-17T07:40:03;2.07;;;1.73;;
33553;SDS011;19885;42.208;24.952;2023-03-17T07:42:30;2.13;;;2.03;;
33553;SDS011;19885;42.208;24.952;2023-03-17T07:44:56;2.23;;;1.70;;
33553;SDS011;19885;42.208;24.952;2023-03-17T07:47:21;3.90;;;1.90;;
33553;SDS011;19885;42.208;24.952;2023-03-17T07:49:50;3.33;;;2.17;;
33553;SDS011;19885;42.208;24.952;2023-03-17T07:52:16;2.33;;;1.70;;
33553;SDS011;19885;42.208;24.952;2023-03-17T07:54:41;1.73;;;1.63;;
33553;SDS011;19885;42.208;24.952;2023-03-17T07:57:07;3.10;;;2.47;;
33553;SDS011;19885;42.208;24.952;2023-03-17T07:59:33;1.90;;;1.73;;
33553;SDS011;19885;42.208;24.952;2023-03-17T08:01:58;3.20;;;1.33;;
33553;SDS011;19885;42.208;24.952;2023-03-17T08:04:28;2.03;;;1.90;;
33553;SDS011;19885;42.208;24.952;2023-03-17T08:06:53;1.80;;;1.70;;
33553;SDS011;19885;42.208;24.952;2023-03-17T08:09:19;1.70;;;1.60;;
33553;SDS011;19885;42.208;24.952;2023-03-17T08:11:48;2.40;;;1.43;;
33553;SDS011;19885;42.208;24.952;2023-03-17T08:14:17;1.50;;;1.40;;
33553;SDS011;19885;42.208;24.952;2023-03-17T08:16:42;2.10;;;1.90;;
33553;SDS011;19885;42.208;24.952;2023-03-17T08:19:11;1.57;;;1.47;;
33553;SDS011;19885;42.208;24.952;2023-03-17T08:21:37;1.73;;;1.40;;
33553;SDS011;19885;42.208;24.952;2023-03-17T08:24:02;1.93;;;1.53;;
33553;SDS011;19885;42.208;24.952;2023-03-17T08:26:32;1.37;;;1.13;;
33553;SDS011;19885;42.208;24.952;2023-03-17T08:28:58;2.70;;;1.43;;
33553;SDS011;19885;42.208;24.952;2023-03-17T08:31:23;1.60;;;1.30;;
33553;SDS011;19885;42.208;24.952;2023-03-17T08:33:50;9.27;;;2.43;;
33553;SDS011;19885;42.208;24.952;2023-03-17T08:36:21;1.53;;;1.40;;
33553;SDS011;19885;42.208;24.952;2023-03-17T08:38:48;2.97;;;1.73;;
33553;SDS011;19885;42.208;24.952;2023-03-17T08:41:15;4.17;;;1.40;;
33553;SDS011;19885;42.208;24.952;2023-03-17T08:43:42;2.73;;;1.53;;
33553;SDS011;19885;42.208;24.952;2023-03-17T08:46:16;2.80;;;1.70;;
33553;SDS011;19885;42.208;24.952;2023-03-17T08:48:47;1.83;;;1.70;;
33553;SDS011;19885;42.208;24.952;2023-03-17T08:51:15;2.87;;;1.60;;
33553;SDS011;19885;42.208;24.952;2023-03-17T08:53:41;1.60;;;1.17;;
33553;SDS011;19885;42.208;24.952;2023-03-17T08:56:11;3.93;;;2.03;;
33553;SDS011;19885;42.208;24.952;2023-03-17T08:58:38;2.07;;;1.83;;
33553;SDS011;19885;42.208;24.952;2023-03-17T09:01:07;1.83;;;1.50;;
33553;SDS011;19885;42.208;24.952;2023-03-17T09:03:34;3.23;;;1.43;;
33553;SDS011;19885;42.208;24.952;2023-03-17T09:06:03;2.07;;;1.80;;
33553;SDS011;19885;42.208;24.952;2023-03-17T09:08:31;1.93;;;1.10;;
33553;SDS011;19885;42.208;24.952;2023-03-17T09:10:58;5.13;;;1.60;;
33553;SDS011;19885;42.208;24.952;2023-03-17T09:13:25;1.73;;;1.47;;
33553;SDS011;19885;42.208;24.952;2023-03-17T09:15:51;2.20;;;1.37;;
33553;SDS011;19885;42.208;24.952;2023-03-17T09:18:17;2.20;;;1.40;;
33553;SDS011;19885;42.208;24.952;2023-03-17T09:20:43;1.57;;;1.30;;
33553;SDS011;19885;42.208;24.952;2023-03-17T09:23:09;11.30;;;2.30;;
33553;SDS011;19885;42.208;24.952;2023-03-17T09:25:42;1.23;;;1.13;;
33553;SDS011;19885;42.208;24.952;2023-03-17T09:28:09;4.93;;;1.37;;
33553;SDS011;19885;42.208;24.952;2023-03-17T09:30:36;1.53;;;1.23;;
33553;SDS011;19885;42.208;24.952;2023-03-17T09:33:04;1.80;;;1.40;;
33553;SDS011;19885;42.208;24.952;2023-03-17T09:35:32;1.63;;;1.53;;
33553;SDS011;19885;42.208;24.952;2023-03-17T09:38:00;2.67;;;1.53;;
33553;SDS011;19885;42.208;24.952;2023-03-17T09:40:29;2.53;;;1.40;;
33553;SDS011;19885;42.208;24.952;2023-03-17T09:43:22;1.67;;;1.57;;
33553;SDS011;19885;42.208;24.952;2023-03-17T09:45:55;2.03;;;1.63;;
33553;SDS011;19885;42.208;24.952;2023-03-17T09:49:06;1.87;;;1.10;;
33553;SDS011;19885;42.208;24.952;2023-03-17T09:51:35;3.43;;;1.40;;
33553;SDS011;19885;42.208;24.952;2023-03-17T09:56:35;1.43;;;1.30;;
33553;SDS011;19885;42.208;24.952;2023-03-17T10:02:07;1.60;;;1.50;;
33553;SDS011;19885;42.208;24.952;2023-03-17T10:05:06;24.63;;;3.93;;
33553;SDS011;19885;42.208;24.952;2023-03-17T10:07:45;2.00;;;1.27;;
33553;SDS011;19885;42.208;24.952;2023-03-17T10:10:13;1.57;;;1.10;;
33553;SDS011;19885;42.208;24.952;2023-03-17T10:18:23;1.43;;;1.30;;
33553;SDS011;19885;42.208;24.952;2023-03-17T10:21:08;2.77;;;1.40;;
33553;SDS011;19885;42.208;24.952;2023-03-17T10:23:37;1.60;;;1.25;;
33553;SDS011;19885;42.208;24.952;2023-03-17T10:26:08;1.83;;;1.07;;
33553;SDS011;19885;42.208;24.952;2023-03-17T10:28:48;4.00;;;1.30;;
33553;SDS011;19885;42.208;24.952;2023-03-17T10:31:22;2.20;;;1.50;;
33553;SDS011;19885;42.208;24.952;2023-03-17T10:33:53;1.20;;;1.10;;
33553;SDS011;19885;42.208;24.952;2023-03-17T10:36:35;1.07;;;1.03;;
33553;SDS011;19885;42.208;24.952;2023-03-17T10:39:03;1.10;;;1.00;;
33553;SDS011;19885;42.208;24.952;2023-03-17T10:41:34;1.73;;;1.10;;
33553;SDS011;19885;42.208;24.952;2023-03-17T10:44:07;2.80;;;1.10;;
33553;SDS011;19885;42.208;24.952;2023-03-17T10:46:35;7.93;;;2.10;;
33553;SDS011;19885;42.208;24.952;2023-03-17T10:49:05;1.43;;;1.00;;
33553;SDS011;19885;42.208;24.952;2023-03-17T10:51:34;1.37;;;1.27;;
33553;SDS011;19885;42.208;24.952;2023-03-17T10:54:07;5.70;;;1.70;;
33553;SDS011;19885;42.208;24.952;2023-03-17T10:56:35;2.63;;;1.60;;
33553;SDS011;19885;42.208;24.952;2023-03-17T10:59:04;1.17;;;1.07;;
33553;SDS011;19885;42.208;24.952;2023-03-17T11:01:38;2.77;;;1.63;;
33553;SDS011;19885;42.208;24.952;2023-03-17T11:07:04;1.87;;;1.30;;
33553;SDS011;19885;42.208;24.952;2023-03-17T11:09:39;1.63;;;1.53;;
33553;SDS011;19885;42.208;24.952;2023-03-17T11:12:06;2.83;;;1.37;;
33553;SDS011;19885;42.208;24.952;2023-03-17T11:14:48;1.57;;;1.27;;
33553;SDS011;19885;42.208;24.952;2023-03-17T11:17:18;1.93;;;1.30;;
33553;SDS011;19885;42.208;24.952;2023-03-17T11:22:33;1.77;;;1.13;;
33553;SDS011;19885;42.208;24.952;2023-03-17T11:25:15;1.80;;;1.33;;
33553;SDS011;19885;42.208;24.952;2023-03-17T11:27:50;2.67;;;1.73;;
33553;SDS011;19885;42.208;24.952;2023-03-17T11:30:26;1.87;;;1.50;;
33553;SDS011;19885;42.208;24.952;2023-03-17T11:33:09;1.57;;;1.47;;
33553;SDS011;19885;42.208;24.952;2023-03-17T11:35:55;1.23;;;1.13;;
33553;SDS011;19885;42.208;24.952;2023-03-17T11:55:09;1.80;;;1.23;;
33553;SDS011;19885;42.208;24.952;2023-03-17T11:57:47;1.30;;;1.20;;
33553;SDS011;19885;42.208;24.952;2023-03-17T12:00:32;1.00;;;1.00;;
33553;SDS011;19885;42.208;24.952;2023-03-17T12:06:05;0.83;;;0.83;;
33553;SDS011;19885;42.208;24.952;2023-03-17T12:08:39;14.57;;;2.13;;
33553;SDS011;19885;42.208;24.952;2023-03-17T12:11:20;1.47;;;1.33;;
33553;SDS011;19885;42.208;24.952;2023-03-17T12:13:51;2.97;;;1.73;;
33553;SDS011;19885;42.208;24.952;2023-03-17T12:19:26;1.40;;;1.30;;
33553;SDS011;19885;42.208;24.952;2023-03-17T12:24:32;1.53;;;1.37;;
33553;SDS011;19885;42.208;24.952;2023-03-17T12:29:40;4.90;;;1.80;;
33553;SDS011;19885;42.208;24.952;2023-03-17T12:35:03;5.83;;;1.73;;
33553;SDS011;19885;42.208;24.952;2023-03-17T12:37:46;1.47;;;1.10;;
33553;SDS011;19885;42.208;24.952;2023-03-17T12:40:14;2.00;;;1.27;;
33553;SDS011;19885;42.208;24.952;2023-03-17T12:42:51;1.43;;;1.37;;
33553;SDS011;19885;42.208;24.952;2023-03-17T12:53:37;1.57;;;1.37;;
33553;SDS011;19885;42.208;24.952;2023-03-17T12:56:16;2.10;;;1.83;;
33553;SDS011;19885;42.208;24.952;2023-03-17T12:58:52;16.23;;;8.83;;
33553;SDS011;19885;42.208;24.952;2023-03-17T13:01:37;92.37;;;44.00;;
33553;SDS011;19885;42.208;24.952;2023-03-17T13:04:26;41.33;;;22.23;;
33553;SDS011;19885;42.208;24.952;2023-03-17T13:09:43;3.00;;;2.10;;
33553;SDS011;19885;42.208;24.952;2023-03-17T13:15:01;1.90;;;1.80;;
33553;SDS011;19885;42.208;24.952;2023-03-17T13:19:58;3.00;;;1.40;;
33553;SDS011;19885;42.208;24.952;2023-03-17T13:22:33;4.83;;;2.37;;
33553;SDS011;19885;42.208;24.952;2023-03-17T13:28:22;6.77;;;2.30;;
33553;SDS011;19885;42.208;24.952;2023-03-17T13:31:27;5.33;;;1.77;;
33553;SDS011;19885;42.208;24.952;2023-03-17T13:34:17;26.17;;;9.10;;
33553;SDS011;19885;42.208;24.952;2023-03-17T13:42:34;5.87;;;1.53;;
33553;SDS011;19885;42.208;24.952;2023-03-17T13:51:03;2.80;;;1.77;;
33553;SDS011;19885;42.208;24.952;2023-03-17T13:53:43;5.47;;;1.83;;
33553;SDS011;19885;42.208;24.952;2023-03-17T13:56:14;3.70;;;2.23;;
33553;SDS011;19885;42.208;24.952;2023-03-17T13:59:05;3.50;;;2.07;;
33553;SDS011;19885;42.208;24.952;2023-03-17T14:01:44;2.80;;;1.87;;
33553;SDS011;19885;42.208;24.952;2023-03-17T14:04:19;3.53;;;1.80;;
33553;SDS011;19885;42.208;24.952;2023-03-17T14:06:50;1.60;;;1.30;;
33553;SDS011;19885;42.208;24.952;2023-03-17T14:09:24;2.47;;;1.23;;
33553;SDS011;19885;42.208;24.952;2023-03-17T14:12:01;2.13;;;1.33;;
33553;SDS011;19885;42.208;24.952;2023-03-17T14:22:41;1.73;;;1.50;;
33553;SDS011;19885;42.208;24.952;2023-03-17T14:25:13;2.17;;;1.97;;
33553;SDS011;19885;42.208;24.952;2023-03-17T14:27:41;1.50;;;1.37;;
33553;SDS011;19885;42.208;24.952;2023-03-17T14:30:15;3.00;;;1.67;;
33553;SDS011;19885;42.208;24.952;2023-03-17T14:32:47;3.37;;;1.30;;
33553;SDS011;19885;42.208;24.952;2023-03-17T14:35:15;3.77;;;1.57;;
33553;SDS011;19885;42.208;24.952;2023-03-17T14:37:41;2.47;;;1.93;;
33553;SDS011;19885;42.208;24.952;2023-03-17T14:40:19;3.40;;;1.40;;
33553;SDS011;19885;42.208;24.952;2023-03-17T14:42:46;1.60;;;1.50;;
33553;SDS011;19885;42.208;24.952;2023-03-17T14:45:17;1.30;;;1.20;;
33553;SDS011;19885;42.208;24.952;2023-03-17T14:48:04;2.10;;;1.67;;
33553;SDS011;19885;42.208;24.952;2023-03-17T14:50:32;3.57;;;2.57;;
33553;SDS011;19885;42.208;24.952;2023-03-17T14:52:58;961.87;;;437.13;;
33553;SDS011;19885;42.208;24.952;2023-03-17T14:55:38;861.53;;;339.63;;
33553;SDS011;19885;42.208;24.952;2023-03-17T14:58:07;901.33;;;357.37;;
33553;SDS011;19885;42.208;24.952;2023-03-17T15:00:43;853.03;;;315.53;;
33553;SDS011;19885;42.208;24.952;2023-03-17T15:03:15;936.43;;;378.73;;
33553;SDS011;19885;42.208;24.952;2023-03-17T15:05:45;810.53;;;281.10;;
33553;SDS011;19885;42.208;24.952;2023-03-17T15:11:00;823.73;;;299.63;;
33553;SDS011;19885;42.208;24.952;2023-03-17T15:13:28;52.97;;;35.33;;
33553;SDS011;19885;42.208;24.952;2023-03-17T15:16:03;570.10;;;247.20;;
33553;SDS011;19885;42.208;24.952;2023-03-17T15:18:52;473.57;;;244.23;;
33553;SDS011;19885;42.208;24.952;2023-03-17T15:21:30;278.17;;;236.10;;
33553;SDS011;19885;42.208;24.952;2023-03-17T15:24:02;670.37;;;285.10;;
33553;SDS011;19885;42.208;24.952;2023-03-17T15:26:43;773.83;;;335.10;;
33553;SDS011;19885;42.208;24.952;2023-03-17T15:29:08;803.83;;;297.73;;
33553;SDS011;19885;42.208;24.952;2023-03-17T15:31:34;711.37;;;305.10;;
33553;SDS011;19885;42.208;24.952;2023-03-17T15:34:00;655.03;;;321.97;;
33553;SDS011;19885;42.208;24.952;2023-03-17T15:36:25;163.67;;;144.43;;
33553;SDS011;19885;42.208;24.952;2023-03-17T15:38:52;21.40;;;20.00;;
33553;SDS011;19885;42.208;24.952;2023-03-17T15:41:18;364.83;;;254.13;;
33553;SDS011;19885;42.208;24.952;2023-03-17T15:43:45;518.63;;;310.10;;
33553;SDS011;19885;42.208;24.952;2023-03-17T15:46:18;519.27;;;325.40;;
33553;SDS011;19885;42.208;24.952;2023-03-17T15:48:47;382.53;;;290.17;;
33553;SDS011;19885;42.208;24.952;2023-03-17T15:51:13;280.70;;;248.33;;
33553;SDS011;19885;42.208;24.952;2023-03-17T15:53:40;346.00;;;275.80;;
33553;SDS011;19885;42.208;24.952;2023-03-17T15:56:08;451.67;;;368.23;;
33553;SDS011;19885;42.208;24.952;2023-03-17T15:58:46;520.70;;;369.40;;
33553;SDS011;19885;42.208;24.952;2023-03-17T16:01:13;937.10;;;551.40;;
33553;SDS011;19885;42.208;24.952;2023-03-17T16:03:40;693.80;;;460.50;;
33553;SDS011;19885;42.208;24.952;2023-03-17T16:06:13;592.13;;;372.93;;
33553;SDS011;19885;42.208;24.952;2023-03-17T16:08:44;693.90;;;452.10;;
33553;SDS011;19885;42.208;24.952;2023-03-17T16:11:14;527.30;;;323.77;;
33553;SDS011;19885;42.208;24.952;2023-03-17T16:13:41;516.70;;;323.77;;
33553;SDS011;19885;42.208;24.952;2023-03-17T16:16:08;503.70;;;332.40;;